sensor_id;sensor_type;location;lat;lon;timestamp;P1;durP1;ratioP1;P2;durP2;ratioP2
28003;SDS011;15330;51.234;6.754;2023-07-29T00:00:19;5.10;;;4.57;;
28003;SDS011;15330;51.234;6.754;2023-07-29T00:02:45;5.57;;;3.80;;
28003;SDS011;15330;51.234;6.754;2023-07-29T00:05:10;6.35;;;4.22;;
28003;SDS011;15330;51.234;6.754;2023-07-29T00:07:36;6.80;;;4.13;;
28003;SDS011;15330;51.234;6.754;2023-07-29T00:10:01;5.45;;;3.90;;
28003;SDS011;15330;51.234;6.754;2023-07-29T00:12:28;5.72;;;3.53;;
28003;SDS011;15330;51.234;6.754;2023-07-29T00:14:53;4.50;;;3.53;;
28003;SDS011;15330;51.234;6.754;2023-07-29T00:17:19;4.03;;;3.47;;
28003;SDS011;15330;51.234;6.754;2023-07-29T00:19:45;4.53;;;3.78;;
28003;SDS011;15330;51.234;6.754;2023-07-29T00:22:11;5.13;;;3.40;;
28003;SDS011;15330;51.234;6.754;2023-07-29T00:24:36;3.83;;;3.53;;
28003;SDS011;15330;51.234;6.754;2023-07-29T00:27:01;5.45;;;3.72;;
28003;SDS011;15330;51.234;6.754;2023-07-29T00:29:27;5.88;;;3.42;;
28003;SDS011;15330;51.234;6.754;2023-07-29T00:31:52;5.45;;;3.45;;
28003;SDS011;15330;51.234;6.754;2023-07-29T00:34:17;6.57;;;3.35;;
28003;SDS011;15330;51.234;6.754;2023-07-29T00:36:44;5.22;;;3.40;;
28003;SDS011;15330;51.234;6.754;2023-07-29T00:39:13;6.05;;;3.70;;
28003;SDS011;15330;51.234;6.754;2023-07-29T00:41:38;5.13;;;4.13;;
28003;SDS011;15330;51.234;6.754;2023-07-29T00:44:04;5.60;;;4.53;;
28003;SDS011;15330;51.234;6.754;2023-07-29T00:46:29;4.70;;;4.30;;
28003;SDS011;15330;51.234;6.754;2023-07-29T00:48:55;4.95;;;3.95;;
28003;SDS011;15330;51.234;6.754;2023-07-29T00:51:20;10.93;;;5.00;;
28003;SDS011;15330;51.234;6.754;2023-07-29T00:53:46;6.20;;;3.92;;
28003;SDS011;15330;51.234;6.754;2023-07-29T00:56:11;4.72;;;4.05;;
28003;SDS011;15330;51.234;6.754;2023-07-29T00:58:37;6.57;;;4.13;;
28003;SDS011;15330;51.234;6.754;2023-07-29T01:01:03;6.05;;;4.40;;
28003;SDS011;15330;51.234;6.754;2023-07-29T01:03:28;4.45;;;3.97;;
28003;SDS011;15330;51.234;6.754;2023-07-29T01:06:15;5.15;;;4.57;;
28003;SDS011;15330;51.234;6.754;2023-07-29T01:09:04;5.35;;;4.85;;
28003;SDS011;15330;51.234;6.754;2023-07-29T01:14:26;8.30;;;5.47;;
28003;SDS011;15330;51.234;6.754;2023-07-29T01:17:04;5.35;;;4.57;;
28003;SDS011;15330;51.234;6.754;2023-07-29T01:22:08;8.52;;;5.25;;
28003;SDS011;15330;51.234;6.754;2023-07-29T01:24:35;8.27;;;5.07;;
28003;SDS011;15330;51.234;6.754;2023-07-29T01:27:01;5.10;;;4.70;;
28003;SDS011;15330;51.234;6.754;2023-07-29T01:29:30;7.85;;;4.80;;
28003;SDS011;15330;51.234;6.754;2023-07-29T01:31:56;6.47;;;4.80;;
28003;SDS011;15330;51.234;6.754;2023-07-29T01:34:38;6.50;;;4.47;;
28003;SDS011;15330;51.234;6.754;2023-07-29T01:37:09;7.43;;;4.57;;
28003;SDS011;15330;51.234;6.754;2023-07-29T01:39:40;5.78;;;5.10;;
28003;SDS011;15330;51.234;6.754;2023-07-29T01:42:08;6.25;;;4.60;;
28003;SDS011;15330;51.234;6.754;2023-07-29T01:44:33;8.77;;;4.38;;
28003;SDS011;15330;51.234;6.754;2023-07-29T01:47:00;5.45;;;4.93;;
28003;SDS011;15330;51.234;6.754;2023-07-29T01:49:26;7.93;;;5.53;;
28003;SDS011;15330;51.234;6.754;2023-07-29T01:51:51;5.30;;;4.80;;
28003;SDS011;15330;51.234;6.754;2023-07-29T01:54:16;6.72;;;4.97;;
28003;SDS011;15330;51.234;6.754;2023-07-29T01:56:42;8.70;;;5.35;;
28003;SDS011;15330;51.234;6.754;2023-07-29T01:59:07;6.85;;;5.10;;
28003;SDS011;15330;51.234;6.754;2023-07-29T02:01:33;4.82;;;4.32;;
28003;SDS011;15330;51.234;6.754;2023-07-29T02:03:58;5.82;;;4.90;;
28003;SDS011;15330;51.234;6.754;2023-07-29T02:06:23;11.10;;;4.35;;
28003;SDS011;15330;51.234;6.754;2023-07-29T02:08:49;7.55;;;4.95;;
28003;SDS011;15330;51.234;6.754;2023-07-29T02:11:14;8.07;;;4.82;;
28003;SDS011;15330;51.234;6.754;2023-07-29T02:13:39;5.47;;;4.90;;
28003;SDS011;15330;51.234;6.754;2023-07-29T02:16:05;4.90;;;4.40;;
28003;SDS011;15330;51.234;6.754;2023-07-29T02:18:30;8.30;;;4.75;;
28003;SDS011;15330;51.234;6.754;2023-07-29T02:20:56;10.18;;;5.40;;
28003;SDS011;15330;51.234;6.754;2023-07-29T02:23:21;4.80;;;4.30;;
28003;SDS011;15330;51.234;6.754;2023-07-29T02:25:46;5.18;;;4.43;;
28003;SDS011;15330;51.234;6.754;2023-07-29T02:28:12;8.18;;;4.55;;
28003;SDS011;15330;51.234;6.754;2023-07-29T02:30:40;8.77;;;5.07;;
28003;SDS011;15330;51.234;6.754;2023-07-29T02:33:06;5.25;;;4.70;;
28003;SDS011;15330;51.234;6.754;2023-07-29T02:35:32;6.80;;;3.95;;
28003;SDS011;15330;51.234;6.754;2023-07-29T02:37:57;7.03;;;4.43;;
28003;SDS011;15330;51.234;6.754;2023-07-29T02:40:22;4.80;;;4.38;;
28003;SDS011;15330;51.234;6.754;2023-07-29T02:42:50;7.40;;;4.47;;
28003;SDS011;15330;51.234;6.754;2023-07-29T02:45:15;10.70;;;4.43;;
28003;SDS011;15330;51.234;6.754;2023-07-29T02:47:40;5.78;;;4.63;;
28003;SDS011;15330;51.234;6.754;2023-07-29T02:50:06;6.65;;;4.35;;
28003;SDS011;15330;51.234;6.754;2023-07-29T02:52:31;6.38;;;4.18;;
28003;SDS011;15330;51.234;6.754;2023-07-29T02:54:57;5.85;;;4.22;;
28003;SDS011;15330;51.234;6.754;2023-07-29T02:57:22;4.20;;;3.60;;
28003;SDS011;15330;51.234;6.754;2023-07-29T02:59:47;6.68;;;4.18;;
28003;SDS011;15330;51.234;6.754;2023-07-29T03:02:13;7.10;;;3.65;;
28003;SDS011;15330;51.234;6.754;2023-07-29T03:04:39;5.57;;;3.80;;
28003;SDS011;15330;51.234;6.754;2023-07-29T03:07:04;7.75;;;3.65;;
28003;SDS011;15330;51.234;6.754;2023-07-29T03:09:30;5.75;;;3.90;;
28003;SDS011;15330;51.234;6.754;2023-07-29T03:11:55;6.50;;;4.10;;
28003;SDS011;15330;51.234;6.754;2023-07-29T03:14:21;6.18;;;4.10;;
28003;SDS011;15330;51.234;6.754;2023-07-29T03:16:47;5.10;;;3.92;;
28003;SDS011;15330;51.234;6.754;2023-07-29T03:19:12;6.30;;;4.07;;
28003;SDS011;15330;51.234;6.754;2023-07-29T03:21:38;7.43;;;4.03;;
28003;SDS011;15330;51.234;6.754;2023-07-29T03:24:03;5.07;;;4.00;;
28003;SDS011;15330;51.234;6.754;2023-07-29T03:26:28;7.70;;;4.28;;
28003;SDS011;15330;51.234;6.754;2023-07-29T03:28:54;4.68;;;3.92;;
28003;SDS011;15330;51.234;6.754;2023-07-29T03:31:19;8.52;;;4.30;;
28003;SDS011;15330;51.234;6.754;2023-07-29T03:33:45;6.70;;;4.03;;
28003;SDS011;15330;51.234;6.754;2023-07-29T03:36:10;8.48;;;4.28;;
28003;SDS011;15330;51.234;6.754;2023-07-29T03:38:36;8.77;;;5.30;;
28003;SDS011;15330;51.234;6.754;2023-07-29T03:41:05;6.35;;;4.95;;
28003;SDS011;15330;51.234;6.754;2023-07-29T03:43:31;5.50;;;4.60;;
28003;SDS011;15330;51.234;6.754;2023-07-29T03:45:56;9.82;;;4.75;;
28003;SDS011;15330;51.234;6.754;2023-07-29T03:48:22;5.22;;;4.72;;
28003;SDS011;15330;51.234;6.754;2023-07-29T03:50:47;6.43;;;4.80;;
28003;SDS011;15330;51.234;6.754;2023-07-29T03:53:12;7.53;;;5.82;;
28003;SDS011;15330;51.234;6.754;2023-07-29T03:55:38;9.57;;;5.53;;
28003;SDS011;15330;51.234;6.754;2023-07-29T03:58:03;9.05;;;5.70;;
28003;SDS011;15330;51.234;6.754;2023-07-29T04:00:28;8.85;;;5.45;;
28003;SDS011;15330;51.234;6.754;2023-07-29T04:02:54;12.02;;;5.80;;
28003;SDS011;15330;51.234;6.754;2023-07-29T04:05:19;10.60;;;5.88;;
28003;SDS011;15330;51.234;6.754;2023-07-29T04:07:45;8.43;;;5.28;;
28003;SDS011;15330;51.234;6.754;2023-07-29T04:10:10;7.22;;;5.45;;
28003;SDS011;15330;51.234;6.754;2023-07-29T04:12:36;11.90;;;5.80;;
28003;SDS011;15330;51.234;6.754;2023-07-29T04:15:02;8.88;;;5.45;;
28003;SDS011;15330;51.234;6.754;2023-07-29T04:17:27;9.55;;;6.10;;
28003;SDS011;15330;51.234;6.754;2023-07-29T04:19:53;8.05;;;6.05;;
28003;SDS011;15330;51.234;6.754;2023-07-29T04:22:18;9.75;;;6.47;;
28003;SDS011;15330;51.234;6.754;2023-07-29T04:24:43;8.73;;;6.05;;
28003;SDS011;15330;51.234;6.754;2023-07-29T04:27:09;9.85;;;6.22;;
28003;SDS011;15330;51.234;6.754;2023-07-29T04:29:36;10.80;;;5.95;;
28003;SDS011;15330;51.234;6.754;2023-07-29T04:32:02;9.43;;;7.03;;
28003;SDS011;15330;51.234;6.754;2023-07-29T04:34:28;11.18;;;6.65;;
28003;SDS011;15330;51.234;6.754;2023-07-29T04:36:53;14.73;;;7.85;;
28003;SDS011;15330;51.234;6.754;2023-07-29T04:39:18;10.48;;;7.43;;
28003;SDS011;15330;51.234;6.754;2023-07-29T04:41:44;12.20;;;6.93;;
28003;SDS011;15330;51.234;6.754;2023-07-29T04:44:09;7.47;;;6.70;;
28003;SDS011;15330;51.234;6.754;2023-07-29T04:46:35;9.23;;;6.22;;
28003;SDS011;15330;51.234;6.754;2023-07-29T04:49:01;7.22;;;6.00;;
28003;SDS011;15330;51.234;6.754;2023-07-29T04:51:27;8.35;;;5.82;;
28003;SDS011;15330;51.234;6.754;2023-07-29T04:53:53;8.18;;;6.40;;
28003;SDS011;15330;51.234;6.754;2023-07-29T04:56:18;10.18;;;5.82;;
28003;SDS011;15330;51.234;6.754;2023-07-29T04:58:44;6.00;;;5.07;;
28003;SDS011;15330;51.234;6.754;2023-07-29T05:01:09;9.85;;;5.07;;
28003;SDS011;15330;51.234;6.754;2023-07-29T05:03:34;12.32;;;5.40;;
28003;SDS011;15330;51.234;6.754;2023-07-29T05:06:00;7.15;;;4.65;;
28003;SDS011;15330;51.234;6.754;2023-07-29T05:08:26;7.28;;;4.65;;
28003;SDS011;15330;51.234;6.754;2023-07-29T05:10:52;6.03;;;5.03;;
28003;SDS011;15330;51.234;6.754;2023-07-29T05:13:18;9.05;;;5.20;;
28003;SDS011;15330;51.234;6.754;2023-07-29T05:15:43;8.57;;;4.68;;
28003;SDS011;15330;51.234;6.754;2023-07-29T05:18:09;7.28;;;5.07;;
28003;SDS011;15330;51.234;6.754;2023-07-29T05:20:35;7.18;;;5.30;;
28003;SDS011;15330;51.234;6.754;2023-07-29T05:23:00;5.32;;;4.82;;
28003;SDS011;15330;51.234;6.754;2023-07-29T05:25:26;9.18;;;5.32;;
28003;SDS011;15330;51.234;6.754;2023-07-29T05:27:51;7.15;;;5.30;;
28003;SDS011;15330;51.234;6.754;2023-07-29T05:30:17;8.02;;;4.53;;
28003;SDS011;15330;51.234;6.754;2023-07-29T05:32:42;5.93;;;4.68;;
28003;SDS011;15330;51.234;6.754;2023-07-29T05:35:07;6.45;;;4.93;;
28003;SDS011;15330;51.234;6.754;2023-07-29T05:37:33;7.53;;;4.70;;
28003;SDS011;15330;51.234;6.754;2023-07-29T05:39:59;5.93;;;4.88;;
28003;SDS011;15330;51.234;6.754;2023-07-29T05:42:24;5.65;;;4.90;;
28003;SDS011;15330;51.234;6.754;2023-07-29T05:44:50;10.43;;;5.13;;
28003;SDS011;15330;51.234;6.754;2023-07-29T05:47:15;5.75;;;4.70;;
28003;SDS011;15330;51.234;6.754;2023-07-29T05:49:41;7.13;;;4.65;;
28003;SDS011;15330;51.234;6.754;2023-07-29T05:52:06;7.05;;;5.10;;
28003;SDS011;15330;51.234;6.754;2023-07-29T05:54:32;6.43;;;3.85;;
28003;SDS011;15330;51.234;6.754;2023-07-29T05:56:57;6.53;;;3.92;;
28003;SDS011;15330;51.234;6.754;2023-07-29T05:59:23;6.78;;;4.38;;
28003;SDS011;15330;51.234;6.754;2023-07-29T06:01:48;4.80;;;3.63;;
28003;SDS011;15330;51.234;6.754;2023-07-29T06:04:13;5.00;;;4.10;;
28003;SDS011;15330;51.234;6.754;2023-07-29T06:06:39;3.80;;;3.40;;
28003;SDS011;15330;51.234;6.754;2023-07-29T06:09:04;5.22;;;3.67;;
28003;SDS011;15330;51.234;6.754;2023-07-29T06:11:30;8.27;;;3.80;;
28003;SDS011;15330;51.234;6.754;2023-07-29T06:13:55;6.18;;;3.50;;
28003;SDS011;15330;51.234;6.754;2023-07-29T06:16:20;6.22;;;3.33;;
28003;SDS011;15330;51.234;6.754;2023-07-29T06:18:46;8.50;;;3.33;;
28003;SDS011;15330;51.234;6.754;2023-07-29T06:21:11;10.13;;;4.13;;
28003;SDS011;15330;51.234;6.754;2023-07-29T06:23:41;6.38;;;3.72;;
28003;SDS011;15330;51.234;6.754;2023-07-29T06:26:08;3.50;;;3.20;;
28003;SDS011;15330;51.234;6.754;2023-07-29T06:28:33;5.88;;;3.63;;
28003;SDS011;15330;51.234;6.754;2023-07-29T06:30:58;5.05;;;3.00;;
28003;SDS011;15330;51.234;6.754;2023-07-29T06:33:24;3.65;;;2.85;;
28003;SDS011;15330;51.234;6.754;2023-07-29T06:35:49;3.10;;;2.70;;
28003;SDS011;15330;51.234;6.754;2023-07-29T06:38:14;4.30;;;2.10;;
28003;SDS011;15330;51.234;6.754;2023-07-29T06:40:44;2.67;;;2.40;;
28003;SDS011;15330;51.234;6.754;2023-07-29T06:43:09;3.08;;;2.60;;
28003;SDS011;15330;51.234;6.754;2023-07-29T06:45:34;4.97;;;2.58;;
28003;SDS011;15330;51.234;6.754;2023-07-29T06:48:00;6.10;;;2.30;;
28003;SDS011;15330;51.234;6.754;2023-07-29T06:50:25;2.65;;;2.45;;
28003;SDS011;15330;51.234;6.754;2023-07-29T06:52:50;3.17;;;2.22;;
28003;SDS011;15330;51.234;6.754;2023-07-29T06:55:16;2.30;;;2.10;;
28003;SDS011;15330;51.234;6.754;2023-07-29T06:57:41;6.18;;;2.30;;
28003;SDS011;15330;51.234;6.754;2023-07-29T07:00:07;3.63;;;2.03;;
28003;SDS011;15330;51.234;6.754;2023-07-29T07:02:34;4.50;;;2.38;;
28003;SDS011;15330;51.234;6.754;2023-07-29T07:04:59;4.97;;;2.33;;
28003;SDS011;15330;51.234;6.754;2023-07-29T07:07:25;4.13;;;2.67;;
28003;SDS011;15330;51.234;6.754;2023-07-29T07:09:50;3.08;;;2.30;;
28003;SDS011;15330;51.234;6.754;2023-07-29T07:12:15;3.47;;;2.60;;
28003;SDS011;15330;51.234;6.754;2023-07-29T07:14:41;4.55;;;2.42;;
28003;SDS011;15330;51.234;6.754;2023-07-29T07:17:06;3.72;;;2.28;;
28003;SDS011;15330;51.234;6.754;2023-07-29T07:19:31;4.35;;;2.53;;
28003;SDS011;15330;51.234;6.754;2023-07-29T07:21:57;5.15;;;2.42;;
28003;SDS011;15330;51.234;6.754;2023-07-29T07:24:22;4.88;;;2.97;;
28003;SDS011;15330;51.234;6.754;2023-07-29T07:26:47;3.47;;;2.50;;
28003;SDS011;15330;51.234;6.754;2023-07-29T07:29:13;5.68;;;2.47;;
28003;SDS011;15330;51.234;6.754;2023-07-29T07:31:39;5.57;;;2.47;;
28003;SDS011;15330;51.234;6.754;2023-07-29T07:34:04;4.35;;;2.47;;
28003;SDS011;15330;51.234;6.754;2023-07-29T07:36:29;2.88;;;1.90;;
28003;SDS011;15330;51.234;6.754;2023-07-29T07:38:55;5.55;;;2.35;;
28003;SDS011;15330;51.234;6.754;2023-07-29T07:41:21;4.72;;;2.38;;
28003;SDS011;15330;51.234;6.754;2023-07-29T07:43:46;4.63;;;1.98;;
28003;SDS011;15330;51.234;6.754;2023-07-29T07:46:12;2.95;;;2.05;;
28003;SDS011;15330;51.234;6.754;2023-07-29T07:48:37;2.10;;;1.90;;
28003;SDS011;15330;51.234;6.754;2023-07-29T07:51:10;3.35;;;2.15;;
28003;SDS011;15330;51.234;6.754;2023-07-29T07:53:38;4.82;;;2.00;;
28003;SDS011;15330;51.234;6.754;2023-07-29T07:56:04;3.85;;;2.15;;
28003;SDS011;15330;51.234;6.754;2023-07-29T07:58:29;3.55;;;1.50;;
28003;SDS011;15330;51.234;6.754;2023-07-29T08:01:04;4.63;;;1.90;;
28003;SDS011;15330;51.234;6.754;2023-07-29T08:03:31;4.82;;;1.67;;
28003;SDS011;15330;51.234;6.754;2023-07-29T08:05:56;3.45;;;1.80;;
28003;SDS011;15330;51.234;6.754;2023-07-29T08:08:22;3.80;;;1.67;;
28003;SDS011;15330;51.234;6.754;2023-07-29T08:10:47;9.10;;;1.65;;
28003;SDS011;15330;51.234;6.754;2023-07-29T08:13:12;5.15;;;1.50;;
28003;SDS011;15330;51.234;6.754;2023-07-29T08:15:38;2.35;;;1.42;;
28003;SDS011;15330;51.234;6.754;2023-07-29T08:18:03;1.88;;;1.40;;
28003;SDS011;15330;51.234;6.754;2023-07-29T08:20:29;2.30;;;1.50;;
28003;SDS011;15330;51.234;6.754;2023-07-29T08:22:54;4.03;;;1.38;;
28003;SDS011;15330;51.234;6.754;2023-07-29T08:25:19;2.75;;;1.63;;
28003;SDS011;15330;51.234;6.754;2023-07-29T08:27:45;3.63;;;1.40;;
28003;SDS011;15330;51.234;6.754;2023-07-29T08:30:10;2.30;;;1.35;;
28003;SDS011;15330;51.234;6.754;2023-07-29T08:32:36;2.08;;;1.50;;
28003;SDS011;15330;51.234;6.754;2023-07-29T08:35:01;4.50;;;1.45;;
28003;SDS011;15330;51.234;6.754;2023-07-29T08:37:26;1.65;;;1.38;;
28003;SDS011;15330;51.234;6.754;2023-07-29T08:39:52;2.45;;;1.77;;
28003;SDS011;15330;51.234;6.754;2023-07-29T08:42:19;2.63;;;1.35;;
28003;SDS011;15330;51.234;6.754;2023-07-29T08:44:45;2.55;;;1.38;;
28003;SDS011;15330;51.234;6.754;2023-07-29T08:47:14;1.35;;;1.23;;
28003;SDS011;15330;51.234;6.754;2023-07-29T08:49:39;2.50;;;1.10;;
28003;SDS011;15330;51.234;6.754;2023-07-29T08:52:06;1.10;;;0.93;;
28003;SDS011;15330;51.234;6.754;2023-07-29T08:54:32;1.10;;;1.05;;
28003;SDS011;15330;51.234;6.754;2023-07-29T08:56:58;1.52;;;1.20;;
28003;SDS011;15330;51.234;6.754;2023-07-29T08:59:24;1.30;;;1.20;;
28003;SDS011;15330;51.234;6.754;2023-07-29T09:01:50;1.42;;;1.20;;
28003;SDS011;15330;51.234;6.754;2023-07-29T09:04:20;2.35;;;1.02;;
28003;SDS011;15330;51.234;6.754;2023-07-29T09:06:46;1.10;;;1.00;;
28003;SDS011;15330;51.234;6.754;2023-07-29T09:09:13;1.33;;;1.00;;
28003;SDS011;15330;51.234;6.754;2023-07-29T09:11:38;5.05;;;1.38;;
28003;SDS011;15330;51.234;6.754;2023-07-29T09:14:03;7.03;;;1.20;;
28003;SDS011;15330;51.234;6.754;2023-07-29T09:16:29;1.25;;;1.13;;
28003;SDS011;15330;51.234;6.754;2023-07-29T09:18:54;1.20;;;1.10;;
28003;SDS011;15330;51.234;6.754;2023-07-29T09:21:23;3.65;;;1.23;;
28003;SDS011;15330;51.234;6.754;2023-07-29T09:23:53;2.58;;;1.20;;
28003;SDS011;15330;51.234;6.754;2023-07-29T09:26:26;1.73;;;1.30;;
28003;SDS011;15330;51.234;6.754;2023-07-29T09:28:53;2.10;;;1.30;;
28003;SDS011;15330;51.234;6.754;2023-07-29T09:31:22;3.67;;;1.40;;
28003;SDS011;15330;51.234;6.754;2023-07-29T09:33:48;2.20;;;1.20;;
28003;SDS011;15330;51.234;6.754;2023-07-29T09:36:14;2.03;;;1.30;;
28003;SDS011;15330;51.234;6.754;2023-07-29T09:38:40;3.28;;;1.30;;
28003;SDS011;15330;51.234;6.754;2023-07-29T09:41:05;5.38;;;1.35;;
28003;SDS011;15330;51.234;6.754;2023-07-29T09:43:32;4.60;;;1.42;;
28003;SDS011;15330;51.234;6.754;2023-07-29T09:46:02;1.83;;;1.60;;
28003;SDS011;15330;51.234;6.754;2023-07-29T09:48:28;1.75;;;1.42;;
28003;SDS011;15330;51.234;6.754;2023-07-29T09:50:57;1.70;;;1.42;;
28003;SDS011;15330;51.234;6.754;2023-07-29T09:53:22;3.35;;;1.27;;
28003;SDS011;15330;51.234;6.754;2023-07-29T09:55:49;3.85;;;1.40;;
28003;SDS011;15330;51.234;6.754;2023-07-29T09:58:16;2.90;;;1.30;;
28003;SDS011;15330;51.234;6.754;2023-07-29T10:00:50;4.45;;;1.55;;
28003;SDS011;15330;51.234;6.754;2023-07-29T10:03:17;2.30;;;1.50;;
28003;SDS011;15330;51.234;6.754;2023-07-29T10:05:47;6.00;;;1.48;;
28003;SDS011;15330;51.234;6.754;2023-07-29T10:08:12;2.08;;;1.20;;
28003;SDS011;15330;51.234;6.754;2023-07-29T10:10:39;1.92;;;1.35;;
28003;SDS011;15330;51.234;6.754;2023-07-29T10:13:07;2.78;;;1.17;;
28003;SDS011;15330;51.234;6.754;2023-07-29T10:15:34;1.52;;;1.30;;
28003;SDS011;15330;51.234;6.754;2023-07-29T10:18:01;1.48;;;1.38;;
28003;SDS011;15330;51.234;6.754;2023-07-29T10:20:28;1.27;;;1.00;;
28003;SDS011;15330;51.234;6.754;2023-07-29T10:22:56;2.58;;;1.33;;
28003;SDS011;15330;51.234;6.754;2023-07-29T10:25:24;3.05;;;1.00;;
28003;SDS011;15330;51.234;6.754;2023-07-29T10:27:56;3.05;;;1.60;;
28003;SDS011;15330;51.234;6.754;2023-07-29T10:30:24;1.30;;;1.20;;
28003;SDS011;15330;51.234;6.754;2023-07-29T10:32:50;4.00;;;1.38;;
28003;SDS011;15330;51.234;6.754;2023-07-29T10:35:17;2.55;;;1.48;;
28003;SDS011;15330;51.234;6.754;2023-07-29T10:37:43;2.30;;;1.40;;
28003;SDS011;15330;51.234;6.754;2023-07-29T10:40:10;2.78;;;1.60;;
28003;SDS011;15330;51.234;6.754;2023-07-29T10:42:37;4.28;;;1.20;;
28003;SDS011;15330;51.234;6.754;2023-07-29T10:45:16;2.28;;;1.27;;
28003;SDS011;15330;51.234;6.754;2023-07-29T10:47:44;3.40;;;1.50;;
28003;SDS011;15330;51.234;6.754;2023-07-29T10:50:17;2.00;;;1.45;;
28003;SDS011;15330;51.234;6.754;2023-07-29T10:52:44;4.35;;;1.60;;
28003;SDS011;15330;51.234;6.754;2023-07-29T10:55:24;2.15;;;1.17;;
28003;SDS011;15330;51.234;6.754;2023-07-29T10:57:52;2.25;;;1.30;;
28003;SDS011;15330;51.234;6.754;2023-07-29T11:00:33;1.45;;;1.30;;
28003;SDS011;15330;51.234;6.754;2023-07-29T11:02:59;3.80;;;1.23;;
28003;SDS011;15330;51.234;6.754;2023-07-29T11:05:27;4.22;;;1.50;;
28003;SDS011;15330;51.234;6.754;2023-07-29T11:08:42;1.23;;;1.13;;
28003;SDS011;15330;51.234;6.754;2023-07-29T11:13:29;2.80;;;1.50;;
28003;SDS011;15330;51.234;6.754;2023-07-29T11:15:55;1.70;;;1.42;;
28003;SDS011;15330;51.234;6.754;2023-07-29T11:18:24;1.30;;;1.10;;
28003;SDS011;15330;51.234;6.754;2023-07-29T11:20:53;1.42;;;1.30;;
28003;SDS011;15330;51.234;6.754;2023-07-29T11:23:19;3.50;;;1.60;;
28003;SDS011;15330;51.234;6.754;2023-07-29T11:25:44;1.33;;;1.17;;
28003;SDS011;15330;51.234;6.754;2023-07-29T11:28:10;2.20;;;1.35;;
28003;SDS011;15330;51.234;6.754;2023-07-29T11:30:38;3.15;;;1.17;;
28003;SDS011;15330;51.234;6.754;2023-07-29T11:33:04;2.75;;;1.70;;
28003;SDS011;15330;51.234;6.754;2023-07-29T11:35:31;1.65;;;1.50;;
28003;SDS011;15330;51.234;6.754;2023-07-29T11:37:57;3.17;;;1.50;;
28003;SDS011;15330;51.234;6.754;2023-07-29T11:40:22;1.63;;;1.40;;
28003;SDS011;15330;51.234;6.754;2023-07-29T11:42:51;4.20;;;1.63;;
28003;SDS011;15330;51.234;6.754;2023-07-29T11:45:17;3.70;;;1.50;;
28003;SDS011;15330;51.234;6.754;2023-07-29T11:47:43;1.40;;;1.30;;
28003;SDS011;15330;51.234;6.754;2023-07-29T11:50:10;4.13;;;1.60;;
28003;SDS011;15330;51.234;6.754;2023-07-29T11:52:41;1.90;;;1.58;;
28003;SDS011;15330;51.234;6.754;2023-07-29T11:55:08;2.92;;;2.10;;
28003;SDS011;15330;51.234;6.754;2023-07-29T11:57:34;2.38;;;1.50;;
28003;SDS011;15330;51.234;6.754;2023-07-29T12:00:02;3.72;;;1.38;;
28003;SDS011;15330;51.234;6.754;2023-07-29T12:02:29;3.45;;;1.70;;
28003;SDS011;15330;51.234;6.754;2023-07-29T12:04:55;3.95;;;1.90;;
28003;SDS011;15330;51.234;6.754;2023-07-29T12:07:22;2.28;;;1.63;;
28003;SDS011;15330;51.234;6.754;2023-07-29T12:09:48;3.03;;;1.60;;
28003;SDS011;15330;51.234;6.754;2023-07-29T12:12:15;1.70;;;1.60;;
28003;SDS011;15330;51.234;6.754;2023-07-29T12:14:43;2.85;;;1.50;;
28003;SDS011;15330;51.234;6.754;2023-07-29T12:17:10;1.45;;;1.35;;
28003;SDS011;15330;51.234;6.754;2023-07-29T12:19:36;1.95;;;1.38;;
28003;SDS011;15330;51.234;6.754;2023-07-29T12:22:03;2.58;;;1.42;;
28003;SDS011;15330;51.234;6.754;2023-07-29T12:24:30;2.88;;;1.67;;
28003;SDS011;15330;51.234;6.754;2023-07-29T12:26:56;1.98;;;1.70;;
28003;SDS011;15330;51.234;6.754;2023-07-29T12:29:22;2.70;;;1.40;;
28003;SDS011;15330;51.234;6.754;2023-07-29T12:31:47;1.63;;;1.50;;
28003;SDS011;15330;51.234;6.754;2023-07-29T12:34:19;1.98;;;1.48;;
28003;SDS011;15330;51.234;6.754;2023-07-29T12:36:47;3.53;;;1.50;;
28003;SDS011;15330;51.234;6.754;2023-07-29T12:39:17;2.70;;;1.33;;
28003;SDS011;15330;51.234;6.754;2023-07-29T12:41:50;2.28;;;1.70;;
28003;SDS011;15330;51.234;6.754;2023-07-29T12:44:16;5.00;;;1.60;;
28003;SDS011;15330;51.234;6.754;2023-07-29T12:46:42;2.58;;;1.67;;
28003;SDS011;15330;51.234;6.754;2023-07-29T12:49:08;3.13;;;1.50;;
28003;SDS011;15330;51.234;6.754;2023-07-29T12:51:33;2.67;;;1.65;;
28003;SDS011;15330;51.234;6.754;2023-07-29T12:53:59;1.92;;;1.73;;
28003;SDS011;15330;51.234;6.754;2023-07-29T12:56:25;1.55;;;1.40;;
28003;SDS011;15330;51.234;6.754;2023-07-29T12:58:51;3.13;;;1.55;;
28003;SDS011;15330;51.234;6.754;2023-07-29T13:01:17;3.00;;;1.92;;
28003;SDS011;15330;51.234;6.754;2023-07-29T13:03:46;1.75;;;1.55;;
28003;SDS011;15330;51.234;6.754;2023-07-29T13:06:12;1.65;;;1.42;;
28003;SDS011;15330;51.234;6.754;2023-07-29T13:08:38;1.92;;;1.60;;
28003;SDS011;15330;51.234;6.754;2023-07-29T13:11:03;2.17;;;1.77;;
28003;SDS011;15330;51.234;6.754;2023-07-29T13:13:29;1.95;;;1.45;;
28003;SDS011;15330;51.234;6.754;2023-07-29T13:15:54;3.65;;;1.70;;
28003;SDS011;15330;51.234;6.754;2023-07-29T13:18:20;5.20;;;1.80;;
28003;SDS011;15330;51.234;6.754;2023-07-29T13:20:46;3.22;;;1.60;;
28003;SDS011;15330;51.234;6.754;2023-07-29T13:23:12;2.00;;;1.33;;
28003;SDS011;15330;51.234;6.754;2023-07-29T13:25:37;2.53;;;1.92;;
28003;SDS011;15330;51.234;6.754;2023-07-29T13:28:03;4.63;;;1.85;;
28003;SDS011;15330;51.234;6.754;2023-07-29T13:30:28;5.07;;;1.95;;
28003;SDS011;15330;51.234;6.754;2023-07-29T13:32:54;2.28;;;2.05;;
28003;SDS011;15330;51.234;6.754;2023-07-29T13:35:19;1.90;;;1.70;;
28003;SDS011;15330;51.234;6.754;2023-07-29T13:37:45;2.15;;;1.90;;
28003;SDS011;15330;51.234;6.754;2023-07-29T13:40:10;2.70;;;1.80;;
28003;SDS011;15330;51.234;6.754;2023-07-29T13:42:35;1.90;;;1.60;;
28003;SDS011;15330;51.234;6.754;2023-07-29T13:45:01;2.33;;;1.75;;
28003;SDS011;15330;51.234;6.754;2023-07-29T13:47:27;3.47;;;1.83;;
28003;SDS011;15330;51.234;6.754;2023-07-29T13:49:53;3.38;;;2.10;;
28003;SDS011;15330;51.234;6.754;2023-07-29T13:52:18;4.60;;;2.00;;
28003;SDS011;15330;51.234;6.754;2023-07-29T13:54:43;2.90;;;2.13;;
28003;SDS011;15330;51.234;6.754;2023-07-29T13:57:09;5.47;;;1.80;;
28003;SDS011;15330;51.234;6.754;2023-07-29T13:59:35;2.10;;;1.90;;
28003;SDS011;15330;51.234;6.754;2023-07-29T14:02:03;3.03;;;2.20;;
28003;SDS011;15330;51.234;6.754;2023-07-29T14:04:32;2.35;;;1.80;;
28003;SDS011;15330;51.234;6.754;2023-07-29T14:06:57;2.58;;;1.80;;
28003;SDS011;15330;51.234;6.754;2023-07-29T14:09:23;3.28;;;1.90;;
28003;SDS011;15330;51.234;6.754;2023-07-29T14:11:49;4.43;;;1.70;;
28003;SDS011;15330;51.234;6.754;2023-07-29T14:14:14;3.50;;;1.88;;
28003;SDS011;15330;51.234;6.754;2023-07-29T14:16:40;10.27;;;2.60;;
28003;SDS011;15330;51.234;6.754;2023-07-29T14:19:05;5.10;;;2.10;;
28003;SDS011;15330;51.234;6.754;2023-07-29T14:21:31;1.70;;;1.60;;
28003;SDS011;15330;51.234;6.754;2023-07-29T14:23:56;2.72;;;1.77;;
28003;SDS011;15330;51.234;6.754;2023-07-29T14:26:21;4.15;;;2.10;;
28003;SDS011;15330;51.234;6.754;2023-07-29T14:28:47;2.60;;;2.20;;
28003;SDS011;15330;51.234;6.754;2023-07-29T14:31:14;4.32;;;2.15;;
28003;SDS011;15330;51.234;6.754;2023-07-29T14:33:39;4.72;;;2.08;;
28003;SDS011;15330;51.234;6.754;2023-07-29T14:36:04;2.90;;;2.28;;
28003;SDS011;15330;51.234;6.754;2023-07-29T14:38:32;6.80;;;2.65;;
28003;SDS011;15330;51.234;6.754;2023-07-29T14:40:57;2.40;;;2.20;;
28003;SDS011;15330;51.234;6.754;2023-07-29T14:43:23;3.00;;;2.15;;
28003;SDS011;15330;51.234;6.754;2023-07-29T14:45:48;3.30;;;2.17;;
28003;SDS011;15330;51.234;6.754;2023-07-29T14:48:14;3.03;;;2.10;;
28003;SDS011;15330;51.234;6.754;2023-07-29T14:50:39;2.33;;;1.80;;